sensor_id;sensor_type;location;lat;lon;timestamp;temperature;humidity
6008;DHT22;3032;49.484;11.112;2024-03-23T00:53:44;9.80;99.90
6008;DHT22;3032;49.484;11.112;2024-03-23T00:56:09;10.00;99.90
6008;DHT22;3032;49.484;11.112;2024-03-23T00:58:35;10.10;99.90
6008;DHT22;3032;49.484;11.112;2024-03-23T01:01:00;9.80;99.90
6008;DHT22;3032;49.484;11.112;2024-03-23T01:03:27;9.80;99.90
6008;DHT22;3032;49.484;11.112;2024-03-23T01:05:53;10.10;99.90
6008;DHT22;3032;49.484;11.112;2024-03-23T01:08:19;9.80;99.90
6008;DHT22;3032;49.484;11.112;2024-03-23T01:10:57;9.20;99.90
6008;DHT22;3032;49.484;11.112;2024-03-23T01:13:22;8.90;99.90
6008;DHT22;3032;49.484;11.112;2024-03-23T01:15:52;9.20;99.90
6008;DHT22;3032;49.484;11.112;2024-03-23T01:18:19;9.60;99.90
6008;DHT22;3032;49.484;11.112;2024-03-23T01:20:45;9.60;99.90
6008;DHT22;3032;49.484;11.112;2024-03-23T01:23:10;9.60;99.90
6008;DHT22;3032;49.484;11.112;2024-03-23T01:25:36;9.10;99.90
6008;DHT22;3032;49.484;11.112;2024-03-23T01:28:01;9.00;99.90
6008;DHT22;3032;49.484;11.112;2024-03-23T01:30:27;9.30;99.90
6008;DHT22;3032;49.484;11.112;2024-03-23T01:32:52;9.60;99.90
6008;DHT22;3032;49.484;11.112;2024-03-23T01:35:19;9.70;99.90
6008;DHT22;3032;49.484;11.112;2024-03-23T01:37:44;9.70;99.90
6008;DHT22;3032;49.484;11.112;2024-03-23T01:40:10;9.80;99.90
6008;DHT22;3032;49.484;11.112;2024-03-23T01:42:39;10.00;99.90
6008;DHT22;3032;49.484;11.112;2024-03-23T01:45:07;10.00;99.90
6008;DHT22;3032;49.484;11.112;2024-03-23T01:47:34;9.70;99.90
6008;DHT22;3032;49.484;11.112;2024-03-23T01:49:59;9.60;99.90
6008;DHT22;3032;49.484;11.112;2024-03-23T01:52:26;9.70;99.90
6008;DHT22;3032;49.484;11.112;2024-03-23T01:54:52;9.60;99.90
6008;DHT22;3032;49.484;11.112;2024-03-23T01:57:18;9.90;99.90
6008;DHT22;3032;49.484;11.112;2024-03-23T01:59:44;10.00;99.90
6008;DHT22;3032;49.484;11.112;2024-03-23T02:02:09;10.10;99.90
6008;DHT22;3032;49.484;11.112;2024-03-23T02:04:35;10.20;99.90
6008;DHT22;3032;49.484;11.112;2024-03-23T02:07:00;10.40;99.90
6008;DHT22;3032;49.484;11.112;2024-03-23T02:09:27;10.40;99.90
6008;DHT22;3032;49.484;11.112;2024-03-23T02:11:54;10.50;99.90
6008;DHT22;3032;49.484;11.112;2024-03-23T02:14:20;10.50;99.90
6008;DHT22;3032;49.484;11.112;2024-03-23T02:16:45;10.50;99.90
6008;DHT22;3032;49.484;11.112;2024-03-23T02:19:12;10.60;99.90
6008;DHT22;3032;49.484;11.112;2024-03-23T02:21:38;10.60;99.90
6008;DHT22;3032;49.484;11.112;2024-03-23T02:24:03;10.60;99.90
6008;DHT22;3032;49.484;11.112;2024-03-23T02:26:29;10.70;99.90
6008;DHT22;3032;49.484;11.112;2024-03-23T02:28:54;10.90;99.90
6008;DHT22;3032;49.484;11.112;2024-03-23T02:31:20;10.90;99.90
6008;DHT22;3032;49.484;11.112;2024-03-23T02:33:45;10.80;99.90
6008;DHT22;3032;49.484;11.112;2024-03-23T02:36:11;10.80;99.90
6008;DHT22;3032;49.484;11.112;2024-03-23T02:38:36;10.90;99.90
6008;DHT22;3032;49.484;11.112;2024-03-23T02:41:03;10.90;99.90
6008;DHT22;3032;49.484;11.112;2024-03-23T02:43:29;11.10;99.90
6008;DHT22;3032;49.484;11.112;2024-03-23T02:45:54;11.20;99.90
6008;DHT22;3032;49.484;11.112;2024-03-23T02:48:20;11.50;99.90
6008;DHT22;3032;49.484;11.112;2024-03-23T02:50:45;11.70;99.90
6008;DHT22;3032;49.484;11.112;2024-03-23T02:53:11;11.90;99.90
6008;DHT22;3032;49.484;11.112;2024-03-23T02:55:37;12.00;99.90
6008;DHT22;3032;49.484;11.112;2024-03-23T02:58:02;12.10;99.90
6008;DHT22;3032;49.484;11.112;2024-03-23T03:00:28;12.10;99.90
6008;DHT22;3032;49.484;11.112;2024-03-23T03:02:54;11.90;99.90
6008;DHT22;3032;49.484;11.112;2024-03-23T03:05:20;11.90;99.90
6008;DHT22;3032;49.484;11.112;2024-03-23T03:07:45;11.80;99.90
6008;DHT22;3032;49.484;11.112;2024-03-23T03:10:11;11.70;99.90
6008;DHT22;3032;49.484;11.112;2024-03-23T03:12:37;11.60;99.90
6008;DHT22;3032;49.484;11.112;2024-03-23T03:15:03;11.70;99.90
6008;DHT22;3032;49.484;11.112;2024-03-23T03:17:30;11.70;99.90
6008;DHT22;3032;49.484;11.112;2024-03-23T03:19:56;11.60;99.90
6008;DHT22;3032;49.484;11.112;2024-03-23T03:22:22;11.50;99.90
6008;DHT22;3032;49.484;11.112;2024-03-23T03:24:47;11.60;99.90
6008;DHT22;3032;49.484;11.112;2024-03-23T03:27:13;11.90;99.90
6008;DHT22;3032;49.484;11.112;2024-03-23T03:29:39;11.90;99.90
6008;DHT22;3032;49.484;11.112;2024-03-23T03:32:04;12.20;99.90
6008;DHT22;3032;49.484;11.112;2024-03-23T03:34:30;12.00;99.90
6008;DHT22;3032;49.484;11.112;2024-03-23T03:36:56;11.80;99.90
6008;DHT22;3032;49.484;11.112;2024-03-23T03:39:22;11.70;99.90
6008;DHT22;3032;49.484;11.112;2024-03-23T03:41:48;11.50;99.90
6008;DHT22;3032;49.484;11.112;2024-03-23T03:44:14;11.50;99.90
6008;DHT22;3032;49.484;11.112;2024-03-23T03:46:40;11.50;99.90
6008;DHT22;3032;49.484;11.112;2024-03-23T03:49:05;11.50;99.90
6008;DHT22;3032;49.484;11.112;2024-03-23T03:51:31;11.60;99.90
6008;DHT22;3032;49.484;11.112;2024-03-23T03:53:56;11.70;99.90
6008;DHT22;3032;49.484;11.112;2024-03-23T03:56:22;11.60;99.90
6008;DHT22;3032;49.484;11.112;2024-03-23T03:58:48;11.60;99.90
6008;DHT22;3032;49.484;11.112;2024-03-23T04:01:14;11.70;99.90
6008;DHT22;3032;49.484;11.112;2024-03-23T04:03:39;11.60;99.90
6008;DHT22;3032;49.484;11.112;2024-03-23T04:06:11;11.70;99.90
6008;DHT22;3032;49.484;11.112;2024-03-23T04:08:37;11.70;99.90
6008;DHT22;3032;49.484;11.112;2024-03-23T04:11:03;11.40;99.90
6008;DHT22;3032;49.484;11.112;2024-03-23T04:13:28;11.00;99.90
6008;DHT22;3032;49.484;11.112;2024-03-23T04:15:55;10.80;99.90
6008;DHT22;3032;49.484;11.112;2024-03-23T04:18:21;10.70;99.90
6008;DHT22;3032;49.484;11.112;2024-03-23T04:20:48;10.60;99.90
6008;DHT22;3032;49.484;11.112;2024-03-23T04:23:14;10.60;99.90
6008;DHT22;3032;49.484;11.112;2024-03-23T04:25:39;10.60;99.90
6008;DHT22;3032;49.484;11.112;2024-03-23T04:28:05;10.60;99.90
6008;DHT22;3032;49.484;11.112;2024-03-23T04:30:31;10.70;99.90
6008;DHT22;3032;49.484;11.112;2024-03-23T04:32:57;11.00;99.90
6008;DHT22;3032;49.484;11.112;2024-03-23T04:35:24;11.20;99.90
6008;DHT22;3032;49.484;11.112;2024-03-23T04:37:51;11.30;99.90
6008;DHT22;3032;49.484;11.112;2024-03-23T04:40:21;11.40;99.90
6008;DHT22;3032;49.484;11.112;2024-03-23T04:42:46;11.60;99.90
6008;DHT22;3032;49.484;11.112;2024-03-23T04:45:12;11.60;99.90
6008;DHT22;3032;49.484;11.112;2024-03-23T04:47:38;11.80;99.90
6008;DHT22;3032;49.484;11.112;2024-03-23T04:50:04;12.00;99.90
6008;DHT22;3032;49.484;11.112;2024-03-23T04:52:30;12.30;99.90
6008;DHT22;3032;49.484;11.112;2024-03-23T04:54:56;12.40;99.90
6008;DHT22;3032;49.484;11.112;2024-03-23T04:57:21;12.40;99.90
6008;DHT22;3032;49.484;11.112;2024-03-23T04:59:47;12.20;99.90
6008;DHT22;3032;49.484;11.112;2024-03-23T05:02:13;11.90;99.90
6008;DHT22;3032;49.484;11.112;2024-03-23T05:04:39;11.90;99.90
6008;DHT22;3032;49.484;11.112;2024-03-23T05:07:06;11.80;99.90
6008;DHT22;3032;49.484;11.112;2024-03-23T05:09:31;11.70;99.90
6008;DHT22;3032;49.484;11.112;2024-03-23T05:11:59;11.60;99.90
6008;DHT22;3032;49.484;11.112;2024-03-23T05:14:26;11.70;99.90
6008;DHT22;3032;49.484;11.112;2024-03-23T05:16:52;11.80;99.90
6008;DHT22;3032;49.484;11.112;2024-03-23T05:19:17;11.90;99.90
6008;DHT22;3032;49.484;11.112;2024-03-23T05:21:43;12.00;99.90
6008;DHT22;3032;49.484;11.112;2024-03-23T05:24:08;12.10;99.90
6008;DHT22;3032;49.484;11.112;2024-03-23T05:26:35;11.90;99.90
6008;DHT22;3032;49.484;11.112;2024-03-23T05:29:01;11.70;99.90
6008;DHT22;3032;49.484;11.112;2024-03-23T05:31:28;11.80;99.90
6008;DHT22;3032;49.484;11.112;2024-03-23T05:33:54;12.00;99.90
6008;DHT22;3032;49.484;11.112;2024-03-23T05:36:20;12.40;99.90
6008;DHT22;3032;49.484;11.112;2024-03-23T05:38:45;12.90;99.90
6008;DHT22;3032;49.484;11.112;2024-03-23T05:41:11;13.30;99.90
6008;DHT22;3032;49.484;11.112;2024-03-23T05:43:37;13.50;99.90
6008;DHT22;3032;49.484;11.112;2024-03-23T05:46:04;13.60;99.90
6008;DHT22;3032;49.484;11.112;2024-03-23T05:48:36;13.90;99.90
6008;DHT22;3032;49.484;11.112;2024-03-23T05:51:02;14.20;99.90
6008;DHT22;3032;49.484;11.112;2024-03-23T05:53:28;14.40;99.90
6008;DHT22;3032;49.484;11.112;2024-03-23T05:56:03;14.50;99.90
6008;DHT22;3032;49.484;11.112;2024-03-23T05:58:32;14.40;99.90
6008;DHT22;3032;49.484;11.112;2024-03-23T06:00:59;14.20;99.90
6008;DHT22;3032;49.484;11.112;2024-03-23T06:03:29;13.70;99.90
6008;DHT22;3032;49.484;11.112;2024-03-23T06:05:55;14.10;99.90
6008;DHT22;3032;49.484;11.112;2024-03-23T06:08:22;13.50;99.90
6008;DHT22;3032;49.484;11.112;2024-03-23T06:10:47;13.50;99.90
6008;DHT22;3032;49.484;11.112;2024-03-23T06:13:13;13.30;99.90
6008;DHT22;3032;49.484;11.112;2024-03-23T06:15:39;13.30;99.90
6008;DHT22;3032;49.484;11.112;2024-03-23T06:18:05;13.10;99.90
6008;DHT22;3032;49.484;11.112;2024-03-23T06:20:33;12.90;99.90
6008;DHT22;3032;49.484;11.112;2024-03-23T06:22:59;12.70;99.90
6008;DHT22;3032;49.484;11.112;2024-03-23T06:25:24;12.20;99.90
6008;DHT22;3032;49.484;11.112;2024-03-23T06:27:50;12.00;99.90
6008;DHT22;3032;49.484;11.112;2024-03-23T06:30:16;12.00;99.90
6008;DHT22;3032;49.484;11.112;2024-03-23T06:32:42;11.90;99.90
6008;DHT22;3032;49.484;11.112;2024-03-23T06:35:08;11.80;99.90
6008;DHT22;3032;49.484;11.112;2024-03-23T06:37:35;11.70;99.90
6008;DHT22;3032;49.484;11.112;2024-03-23T06:40:01;11.70;99.90
6008;DHT22;3032;49.484;11.112;2024-03-23T06:42:27;11.70;99.90
6008;DHT22;3032;49.484;11.112;2024-03-23T06:44:52;11.90;99.90
6008;DHT22;3032;49.484;11.112;2024-03-23T06:47:18;11.80;99.90
6008;DHT22;3032;49.484;11.112;2024-03-23T06:49:43;11.70;99.90
6008;DHT22;3032;49.484;11.112;2024-03-23T06:52:09;11.70;99.90
6008;DHT22;3032;49.484;11.112;2024-03-23T06:54:34;11.80;99.90
6008;DHT22;3032;49.484;11.112;2024-03-23T06:57:00;11.80;99.90
6008;DHT22;3032;49.484;11.112;2024-03-23T06:59:25;11.80;99.90
6008;DHT22;3032;49.484;11.112;2024-03-23T07:01:51;11.80;99.90
6008;DHT22;3032;49.484;11.112;2024-03-23T07:04:16;11.70;99.90
6008;DHT22;3032;49.484;11.112;2024-03-23T07:06:43;11.60;99.90
6008;DHT22;3032;49.484;11.112;2024-03-23T07:09:09;11.60;99.90
6008;DHT22;3032;49.484;11.112;2024-03-23T07:11:35;11.60;99.90
6008;DHT22;3032;49.484;11.112;2024-03-23T07:14:01;11.80;99.90
6008;DHT22;3032;49.484;11.112;2024-03-23T07:16:28;11.50;99.90
6008;DHT22;3032;49.484;11.112;2024-03-23T07:18:53;11.50;99.90
6008;DHT22;3032;49.484;11.112;2024-03-23T07:21:19;11.50;99.90
6008;DHT22;3032;49.484;11.112;2024-03-23T07:23:45;11.60;99.90
6008;DHT22;3032;49.484;11.112;2024-03-23T07:26:11;11.50;99.90
6008;DHT22;3032;49.484;11.112;2024-03-23T07:28:37;11.50;99.90
6008;DHT22;3032;49.484;11.112;2024-03-23T07:31:07;11.80;99.90
6008;DHT22;3032;49.484;11.112;2024-03-23T07:33:37;11.70;99.90
6008;DHT22;3032;49.484;11.112;2024-03-23T07:36:05;11.60;99.90
6008;DHT22;3032;49.484;11.112;2024-03-23T07:38:31;11.60;99.90
6008;DHT22;3032;49.484;11.112;2024-03-23T07:43:32;11.30;99.90
6008;DHT22;3032;49.484;11.112;2024-03-23T07:45:59;11.20;99.90
6008;DHT22;3032;49.484;11.112;2024-03-23T07:48:25;11.10;99.90
6008;DHT22;3032;49.484;11.112;2024-03-23T07:50:58;11.00;99.90
6008;DHT22;3032;49.484;11.112;2024-03-23T07:53:24;11.10;99.90
6008;DHT22;3032;49.484;11.112;2024-03-23T07:55:57;11.20;99.90
6008;DHT22;3032;49.484;11.112;2024-03-23T07:58:23;11.50;99.90
6008;DHT22;3032;49.484;11.112;2024-03-23T08:00:48;11.50;99.90
6008;DHT22;3032;49.484;11.112;2024-03-23T08:03:14;11.80;99.90
6008;DHT22;3032;49.484;11.112;2024-03-23T08:05:40;12.00;99.90
6008;DHT22;3032;49.484;11.112;2024-03-23T08:08:06;12.20;99.90
6008;DHT22;3032;49.484;11.112;2024-03-23T08:10:31;12.30;99.90
6008;DHT22;3032;49.484;11.112;2024-03-23T08:12:57;12.40;99.90
6008;DHT22;3032;49.484;11.112;2024-03-23T08:15:22;12.60;99.90
6008;DHT22;3032;49.484;11.112;2024-03-23T08:17:49;12.70;99.90
6008;DHT22;3032;49.484;11.112;2024-03-23T08:20:15;12.80;99.90
6008;DHT22;3032;49.484;11.112;2024-03-23T08:22:40;12.50;99.90
6008;DHT22;3032;49.484;11.112;2024-03-23T08:25:06;11.90;99.90
6008;DHT22;3032;49.484;11.112;2024-03-23T08:27:32;11.50;99.90
6008;DHT22;3032;49.484;11.112;2024-03-23T08:29:58;10.90;99.90
6008;DHT22;3032;49.484;11.112;2024-03-23T08:32:24;10.10;99.90
6008;DHT22;3032;49.484;11.112;2024-03-23T08:34:49;9.80;99.90
6008;DHT22;3032;49.484;11.112;2024-03-23T08:37:15;9.90;99.90
6008;DHT22;3032;49.484;11.112;2024-03-23T08:39:43;9.60;99.90
6008;DHT22;3032;49.484;11.112;2024-03-23T08:42:08;9.50;99.90
6008;DHT22;3032;49.484;11.112;2024-03-23T08:44:34;9.80;99.90
6008;DHT22;3032;49.484;11.112;2024-03-23T08:46:59;10.00;99.90
6008;DHT22;3032;49.484;11.112;2024-03-23T08:49:26;10.10;99.90
6008;DHT22;3032;49.484;11.112;2024-03-23T08:51:52;10.20;99.90
6008;DHT22;3032;49.484;11.112;2024-03-23T08:54:17;10.20;99.90
6008;DHT22;3032;49.484;11.112;2024-03-23T08:56:45;10.50;99.90
6008;DHT22;3032;49.484;11.112;2024-03-23T08:59:11;10.60;99.90
6008;DHT22;3032;49.484;11.112;2024-03-23T09:01:36;10.60;99.90
6008;DHT22;3032;49.484;11.112;2024-03-23T09:04:03;11.10;99.90
6008;DHT22;3032;49.484;11.112;2024-03-23T09:06:29;11.00;99.90
6008;DHT22;3032;49.484;11.112;2024-03-23T09:08:55;10.80;99.90
6008;DHT22;3032;49.484;11.112;2024-03-23T09:11:20;11.20;99.90
6008;DHT22;3032;49.484;11.112;2024-03-23T09:13:46;10.40;99.90
6008;DHT22;3032;49.484;11.112;2024-03-23T09:16:11;10.30;99.90
6008;DHT22;3032;49.484;11.112;2024-03-23T09:18:37;10.20;99.90
6008;DHT22;3032;49.484;11.112;2024-03-23T09:21:04;11.10;99.90
6008;DHT22;3032;49.484;11.112;2024-03-23T09:23:36;11.60;99.90
6008;DHT22;3032;49.484;11.112;2024-03-23T09:26:04;11.60;99.90
6008;DHT22;3032;49.484;11.112;2024-03-23T09:28:30;11.40;99.90
6008;DHT22;3032;49.484;11.112;2024-03-23T09:31:02;11.30;99.90
6008;DHT22;3032;49.484;11.112;2024-03-23T09:33:28;11.80;99.90
6008;DHT22;3032;49.484;11.112;2024-03-23T09:35:54;11.50;99.90
6008;DHT22;3032;49.484;11.112;2024-03-23T09:38:20;11.40;99.90
6008;DHT22;3032;49.484;11.112;2024-03-23T09:40:49;11.90;99.90
6008;DHT22;3032;49.484;11.112;2024-03-23T09:43:18;12.30;99.90
6008;DHT22;3032;49.484;11.112;2024-03-23T09:45:45;13.70;99.90
6008;DHT22;3032;49.484;11.112;2024-03-23T09:48:11;14.20;99.90
6008;DHT22;3032;49.484;11.112;2024-03-23T09:50:41;14.00;99.90
6008;DHT22;3032;49.484;11.112;2024-03-23T09:53:08;14.30;99.90
6008;DHT22;3032;49.484;11.112;2024-03-23T09:55:35;15.80;99.50
6008;DHT22;3032;49.484;11.112;2024-03-23T09:58:04;15.80;96.30
6008;DHT22;3032;49.484;11.112;2024-03-23T10:00:36;15.10;95.30
6008;DHT22;3032;49.484;11.112;2024-03-23T10:03:02;15.00;96.20
6008;DHT22;3032;49.484;11.112;2024-03-23T10:05:31;14.90;96.90
6008;DHT22;3032;49.484;11.112;2024-03-23T10:08:20;15.30;96.20
6008;DHT22;3032;49.484;11.112;2024-03-23T10:10:46;14.90;96.10
6008;DHT22;3032;49.484;11.112;2024-03-23T10:13:24;14.40;96.60
6008;DHT22;3032;49.484;11.112;2024-03-23T10:15:55;14.00;96.30
6008;DHT22;3032;49.484;11.112;2024-03-23T10:18:21;13.40;97.30
6008;DHT22;3032;49.484;11.112;2024-03-23T10:23:35;13.50;97.60
6008;DHT22;3032;49.484;11.112;2024-03-23T10:26:20;13.10;97.40
6008;DHT22;3032;49.484;11.112;2024-03-23T10:28:52;12.70;98.00
6008;DHT22;3032;49.484;11.112;2024-03-23T10:31:18;12.20;97.70
6008;DHT22;3032;49.484;11.112;2024-03-23T10:33:48;11.90;98.70
6008;DHT22;3032;49.484;11.112;2024-03-23T10:36:14;11.90;99.30
6008;DHT22;3032;49.484;11.112;2024-03-23T10:38:41;12.00;99.90
6008;DHT22;3032;49.484;11.112;2024-03-23T10:41:09;11.90;98.70
6008;DHT22;3032;49.484;11.112;2024-03-23T10:43:36;11.90;98.80
6008;DHT22;3032;49.484;11.112;2024-03-23T10:46:02;12.30;99.40
6008;DHT22;3032;49.484;11.112;2024-03-23T10:48:28;12.30;99.20
6008;DHT22;3032;49.484;11.112;2024-03-23T10:50:54;12.40;98.80
6008;DHT22;3032;49.484;11.112;2024-03-23T10:53:22;12.80;98.50
6008;DHT22;3032;49.484;11.112;2024-03-23T10:55:50;12.80;98.10
6008;DHT22;3032;49.484;11.112;2024-03-23T10:58:19;13.30;97.70
6008;DHT22;3032;49.484;11.112;2024-03-23T11:00:47;13.80;97.10
6008;DHT22;3032;49.484;11.112;2024-03-23T11:03:46;14.40;96.60
6008;DHT22;3032;49.484;11.112;2024-03-23T11:08:59;14.40;94.90
6008;DHT22;3032;49.484;11.112;2024-03-23T11:11:25;14.10;94.90
6008;DHT22;3032;49.484;11.112;2024-03-23T11:13:53;13.70;94.90
6008;DHT22;3032;49.484;11.112;2024-03-23T11:16:23;13.40;95.50
6008;DHT22;3032;49.484;11.112;2024-03-23T11:18:49;13.60;95.00
6008;DHT22;3032;49.484;11.112;2024-03-23T11:21:52;13.90;94.60
6008;DHT22;3032;49.484;11.112;2024-03-23T11:24:21;14.30;93.70
6008;DHT22;3032;49.484;11.112;2024-03-23T11:26:48;14.40;93.10
6008;DHT22;3032;49.484;11.112;2024-03-23T11:29:15;15.50;92.90
6008;DHT22;3032;49.484;11.112;2024-03-23T11:31:52;15.80;90.30
6008;DHT22;3032;49.484;11.112;2024-03-23T11:34:18;15.30;90.20
6008;DHT22;3032;49.484;11.112;2024-03-23T11:36:45;15.10;91.00
6008;DHT22;3032;49.484;11.112;2024-03-23T11:39:18;15.50;90.60
6008;DHT22;3032;49.484;11.112;2024-03-23T11:41:51;16.40;90.40
6008;DHT22;3032;49.484;11.112;2024-03-23T11:44:21;16.00;88.20
6008;DHT22;3032;49.484;11.112;2024-03-23T11:46:48;15.70;87.60
6008;DHT22;3032;49.484;11.112;2024-03-23T11:49:27;16.00;88.90
6008;DHT22;3032;49.484;11.112;2024-03-23T11:51:54;16.40;88.30
6008;DHT22;3032;49.484;11.112;2024-03-23T11:54:22;16.60;85.80
6008;DHT22;3032;49.484;11.112;2024-03-23T11:57:01;16.90;78.60
6008;DHT22;3032;49.484;11.112;2024-03-23T11:59:38;16.40;78.00
6008;DHT22;3032;49.484;11.112;2024-03-23T12:04:32;14.80;80.80
6008;DHT22;3032;49.484;11.112;2024-03-23T12:09:37;15.50;79.50
6008;DHT22;3032;49.484;11.112;2024-03-23T12:12:16;15.90;77.80
6008;DHT22;3032;49.484;11.112;2024-03-23T12:15:01;16.10;75.80
6008;DHT22;3032;49.484;11.112;2024-03-23T12:17:26;15.70;73.00
6008;DHT22;3032;49.484;11.112;2024-03-23T12:19:52;15.40;73.80
6008;DHT22;3032;49.484;11.112;2024-03-23T12:22:21;15.30;73.30
6008;DHT22;3032;49.484;11.112;2024-03-23T12:24:47;15.50;74.40
6008;DHT22;3032;49.484;11.112;2024-03-23T12:27:13;15.10;72.20
6008;DHT22;3032;49.484;11.112;2024-03-23T12:29:38;14.90;72.00
6008;DHT22;3032;49.484;11.112;2024-03-23T12:32:05;14.80;71.00
6008;DHT22;3032;49.484;11.112;2024-03-23T12:34:30;14.70;71.30
6008;DHT22;3032;49.484;11.112;2024-03-23T12:36:56;14.80;72.80
6008;DHT22;3032;49.484;11.112;2024-03-23T12:39:22;15.00;71.70
6008;DHT22;3032;49.484;11.112;2024-03-23T12:41:48;15.40;70.80
6008;DHT22;3032;49.484;11.112;2024-03-23T12:44:14;15.50;69.10
6008;DHT22;3032;49.484;11.112;2024-03-23T12:46:41;15.40;69.70
6008;DHT22;3032;49.484;11.112;2024-03-23T12:49:06;15.20;69.70
6008;DHT22;3032;49.484;11.112;2024-03-23T12:51:32;14.80;71.80
6008;DHT22;3032;49.484;11.112;2024-03-23T12:53:58;14.70;73.10
6008;DHT22;3032;49.484;11.112;2024-03-23T12:56:24;15.10;71.50
6008;DHT22;3032;49.484;11.112;2024-03-23T12:58:49;15.60;70.00
6008;DHT22;3032;49.484;11.112;2024-03-23T13:01:19;15.30;68.80
6008;DHT22;3032;49.484;11.112;2024-03-23T13:03:48;14.80;69.60
6008;DHT22;3032;49.484;11.112;2024-03-23T13:06:14;14.70;71.50
6008;DHT22;3032;49.484;11.112;2024-03-23T13:08:40;14.70;69.60
6008;DHT22;3032;49.484;11.112;2024-03-23T13:11:09;14.40;69.70
6008;DHT22;3032;49.484;11.112;2024-03-23T13:13:36;14.20;69.90
6008;DHT22;3032;49.484;11.112;2024-03-23T13:16:02;14.20;69.90
6008;DHT22;3032;49.484;11.112;2024-03-23T13:18:32;13.60;70.10
6008;DHT22;3032;49.484;11.112;2024-03-23T13:20:58;13.70;70.30
6008;DHT22;3032;49.484;11.112;2024-03-23T13:23:24;13.60;70.60
6008;DHT22;3032;49.484;11.112;2024-03-23T13:25:53;14.10;69.00
6008;DHT22;3032;49.484;11.112;2024-03-23T13:28:20;14.70;68.90
6008;DHT22;3032;49.484;11.112;2024-03-23T13:30:56;15.60;67.50
6008;DHT22;3032;49.484;11.112;2024-03-23T13:33:23;15.90;64.80
6008;DHT22;3032;49.484;11.112;2024-03-23T13:35:52;16.50;65.90
6008;DHT22;3032;49.484;11.112;2024-03-23T13:38:18;16.40;60.90
6008;DHT22;3032;49.484;11.112;2024-03-23T13:41:02;15.90;60.20
6008;DHT22;3032;49.484;11.112;2024-03-23T13:43:30;16.00;61.10
6008;DHT22;3032;49.484;11.112;2024-03-23T13:45:57;15.90;62.00
6008;DHT22;3032;49.484;11.112;2024-03-23T13:48:24;15.20;61.70
6008;DHT22;3032;49.484;11.112;2024-03-23T13:51:03;15.10;60.50
6008;DHT22;3032;49.484;11.112;2024-03-23T13:53:29;15.20;60.50
6008;DHT22;3032;49.484;11.112;2024-03-23T13:55:55;15.30;59.80
6008;DHT22;3032;49.484;11.112;2024-03-23T13:58:21;15.50;60.90
6008;DHT22;3032;49.484;11.112;2024-03-23T14:00:47;15.80;59.60
6008;DHT22;3032;49.484;11.112;2024-03-23T14:03:14;15.50;59.90
6008;DHT22;3032;49.484;11.112;2024-03-23T14:05:40;15.20;58.70
6008;DHT22;3032;49.484;11.112;2024-03-23T14:08:07;14.80;59.30
6008;DHT22;3032;49.484;11.112;2024-03-23T14:10:32;14.50;59.70
6008;DHT22;3032;49.484;11.112;2024-03-23T14:12:58;14.40;61.80
6008;DHT22;3032;49.484;11.112;2024-03-23T14:15:26;14.60;60.60
6008;DHT22;3032;49.484;11.112;2024-03-23T14:17:51;15.00;60.20
6008;DHT22;3032;49.484;11.112;2024-03-23T14:20:17;15.40;59.90
6008;DHT22;3032;49.484;11.112;2024-03-23T14:22:42;15.20;60.00
6008;DHT22;3032;49.484;11.112;2024-03-23T14:25:09;15.20;59.60
6008;DHT22;3032;49.484;11.112;2024-03-23T14:27:34;14.80;58.90
6008;DHT22;3032;49.484;11.112;2024-03-23T14:30:06;14.50;58.40
6008;DHT22;3032;49.484;11.112;2024-03-23T14:32:32;14.00;58.10
6008;DHT22;3032;49.484;11.112;2024-03-23T14:35:05;13.70;59.30
6008;DHT22;3032;49.484;11.112;2024-03-23T14:37:32;13.90;59.00
6008;DHT22;3032;49.484;11.112;2024-03-23T14:39:58;14.50;57.80
6008;DHT22;3032;49.484;11.112;2024-03-23T14:42:24;15.10;59.40
6008;DHT22;3032;49.484;11.112;2024-03-23T14:44:50;15.30;59.90
6008;DHT22;3032;49.484;11.112;2024-03-23T14:47:17;15.40;59.90
6008;DHT22;3032;49.484;11.112;2024-03-23T14:49:43;15.30;60.70
6008;DHT22;3032;49.484;11.112;2024-03-23T14:52:13;15.30;59.10
6008;DHT22;3032;49.484;11.112;2024-03-23T14:54:38;15.30;60.00
6008;DHT22;3032;49.484;11.112;2024-03-23T14:57:04;15.20;61.10
6008;DHT22;3032;49.484;11.112;2024-03-23T14:59:29;14.80;62.40
6008;DHT22;3032;49.484;11.112;2024-03-23T15:01:55;14.40;63.90
6008;DHT22;3032;49.484;11.112;2024-03-23T15:04:21;13.90;65.80
6008;DHT22;3032;49.484;11.112;2024-03-23T15:06:46;13.60;67.00
6008;DHT22;3032;49.484;11.112;2024-03-23T15:09:15;13.30;67.60
6008;DHT22;3032;49.484;11.112;2024-03-23T15:11:40;13.10;69.20
6008;DHT22;3032;49.484;11.112;2024-03-23T15:14:06;12.90;69.90
6008;DHT22;3032;49.484;11.112;2024-03-23T15:16:32;12.50;70.60
6008;DHT22;3032;49.484;11.112;2024-03-23T15:18:58;11.50;76.80
6008;DHT22;3032;49.484;11.112;2024-03-23T15:21:24;9.60;95.40
6008;DHT22;3032;49.484;11.112;2024-03-23T15:23:49;8.90;99.90
6008;DHT22;3032;49.484;11.112;2024-03-23T15:26:15;8.10;99.90
6008;DHT22;3032;49.484;11.112;2024-03-23T15:28:41;7.90;99.90
6008;DHT22;3032;49.484;11.112;2024-03-23T15:31:27;7.60;99.90
6008;DHT22;3032;49.484;11.112;2024-03-23T15:33:53;7.60;99.90
6008;DHT22;3032;49.484;11.112;2024-03-23T15:36:18;8.30;99.90
6008;DHT22;3032;49.484;11.112;2024-03-23T15:38:44;9.00;99.90
6008;DHT22;3032;49.484;11.112;2024-03-23T15:41:10;9.40;99.90
6008;DHT22;3032;49.484;11.112;2024-03-23T15:43:36;9.70;99.90
6008;DHT22;3032;49.484;11.112;2024-03-23T15:46:05;9.90;99.90
6008;DHT22;3032;49.484;11.112;2024-03-23T15:48:31;9.90;99.90
6008;DHT22;3032;49.484;11.112;2024-03-23T15:50:59;9.90;99.90
6008;DHT22;3032;49.484;11.112;2024-03-23T15:53:26;9.60;99.90
6008;DHT22;3032;49.484;11.112;2024-03-23T15:55:59;9.50;99.90
6008;DHT22;3032;49.484;11.112;2024-03-23T15:58:25;9.20;99.90
6008;DHT22;3032;49.484;11.112;2024-03-23T16:03:20;9.10;99.90
6008;DHT22;3032;49.484;11.112;2024-03-23T16:06:05;9.00;99.90
6008;DHT22;3032;49.484;11.112;2024-03-23T16:08:32;9.20;99.90
6008;DHT22;3032;49.484;11.112;2024-03-23T16:11:02;9.10;99.90
6008;DHT22;3032;49.484;11.112;2024-03-23T16:13:28;8.90;99.90
6008;DHT22;3032;49.484;11.112;2024-03-23T16:18:23;9.20;99.90
6008;DHT22;3032;49.484;11.112;2024-03-23T16:21:02;9.50;99.90
6008;DHT22;3032;49.484;11.112;2024-03-23T16:23:29;9.70;99.90
6008;DHT22;3032;49.484;11.112;2024-03-23T16:25:55;9.90;99.90
6008;DHT22;3032;49.484;11.112;2024-03-23T16:28:32;9.60;99.90
6008;DHT22;3032;49.484;11.112;2024-03-23T16:31:05;9.70;99.90
6008;DHT22;3032;49.484;11.112;2024-03-23T16:33:32;9.80;99.90
6008;DHT22;3032;49.484;11.112;2024-03-23T16:36:01;9.80;99.90
6008;DHT22;3032;49.484;11.112;2024-03-23T16:38:28;9.70;99.90
6008;DHT22;3032;49.484;11.112;2024-03-23T16:41:07;9.80;99.90
6008;DHT22;3032;49.484;11.112;2024-03-23T16:43:34;9.30;99.90
6008;DHT22;3032;49.484;11.112;2024-03-23T16:48:29;8.80;99.90
6008;DHT22;3032;49.484;11.112;2024-03-23T16:51:01;8.60;99.90
6008;DHT22;3032;49.484;11.112;2024-03-23T16:53:31;8.60;99.90
6008;DHT22;3032;49.484;11.112;2024-03-23T16:56:01;8.70;99.90
6008;DHT22;3032;49.484;11.112;2024-03-23T16:58:31;8.60;99.90
6008;DHT22;3032;49.484;11.112;2024-03-23T17:01:09;8.80;99.90
6008;DHT22;3032;49.484;11.112;2024-03-23T17:03:37;8.80;99.90